Time;durP1;ratioP1;P1;durP2;ratioP2;P2;SDS_P1;SDS_P2;PMS_P1;PMS_P2;Temp;Humidity;BMP_temperature;BMP_pressure;BME280_temperature;BME280_humidity;BME280_pressure;Samples;Min_cycle;Max_cycle;Signal;HPM_P1;HPM_P2
2023/06/07 00:01:14;;;;;;;14.27;8.32;;;13.90;99.90;;;;;;4804462;29;37393;-86
2023/06/07 00:03:41;;;;;;;15.60;8.43;;;13.90;99.90;;;;;;4802970;29;37152;-85
2023/06/07 00:06:09;;;;;;;16.90;7.85;;;13.80;99.90;;;;;;4818632;29;38278;-85
2023/06/07 00:08:35;;;;;;;15.82;8.05;;;13.80;99.90;;;;;;4819834;29;38725;-86
2023/06/07 00:11:02;;;;;;;16.30;8.90;;;13.80;99.90;;;;;;4809738;29;38387;-86
2023/06/07 00:13:28;;;;;;;15.30;8.57;;;13.80;99.90;;;;;;4801150;29;47184;-87
2023/06/07 00:15:55;;;;;;;13.45;8.38;;;13.80;99.90;;;;;;4819856;29;36815;-87
2023/06/07 00:18:21;;;;;;;13.15;7.88;;;13.80;99.90;;;;;;4803100;29;38529;-86
2023/06/07 00:20:49;;;;;;;16.58;9.57;;;13.70;99.90;;;;;;4799748;29;38013;-85
2023/06/07 00:23:16;;;;;;;18.10;8.07;;;13.70;99.90;;;;;;4802914;29;37074;-86
2023/06/07 00:25:42;;;;;;;16.23;8.75;;;13.70;99.90;;;;;;4806086;29;36007;-85
2023/06/07 00:28:08;;;;;;;16.45;7.97;;;13.70;99.90;;;;;;4804202;29;38455;-83
2023/06/07 00:30:34;;;;;;;16.33;7.82;;;13.60;99.90;;;;;;4795307;29;37466;-86
2023/06/07 00:33:00;;;;;;;16.30;8.93;;;13.60;99.90;;;;;;4796867;29;36954;-85
2023/06/07 00:35:27;;;;;;;16.08;8.60;;;13.50;99.90;;;;;;4800796;29;47089;-84
2023/06/07 00:37:53;;;;;;;14.48;8.07;;;13.50;99.90;;;;;;4800783;29;39086;-86
2023/06/07 00:40:20;;;;;;;15.32;8.57;;;13.50;99.90;;;;;;4800709;29;38064;-83
2023/06/07 00:42:46;;;;;;;17.50;10.00;;;13.50;99.90;;;;;;4799858;29;37303;-84
2023/06/07 00:45:12;;;;;;;15.10;9.15;;;13.50;99.90;;;;;;4804251;29;36407;-85
2023/06/07 00:47:39;;;;;;;14.80;8.30;;;13.50;99.90;;;;;;4797688;29;37551;-86
2023/06/07 00:50:07;;;;;;;15.38;9.15;;;13.50;99.90;;;;;;4802676;29;37473;-81
2023/06/07 00:52:35;;;;;;;15.90;10.05;;;13.40;99.90;;;;;;4803086;29;38029;-86
2023/06/07 00:55:02;;;;;;;19.90;8.50;;;13.50;99.90;;;;;;4799516;29;35724;-82
2023/06/07 00:57:32;;;;;;;18.80;9.02;;;13.50;99.90;;;;;;4793561;29;39001;-87
2023/06/07 01:00:00;;;;;;;20.20;8.95;;;13.50;99.90;;;;;;4815795;29;38457;-86
2023/06/07 01:02:29;;;;;;;14.88;9.15;;;13.50;99.90;;;;;;5235106;24;37130;-83
2023/06/07 01:37:28;;;;;;;15.43;8.88;;;13.20;99.90;;;;;;5029021;24;20057;-81
2023/06/07 01:48:38;;;;;;;18.65;8.82;;;13.20;99.90;;;;;;4962073;24;20039;-81
2023/06/07 02:01:33;;;;;;;14.63;9.00;;;13.10;99.90;;;;;;5100085;23;20766;-79
2023/06/07 02:19:41;;;;;;;20.25;9.27;;;13.00;99.90;;;;;;4986956;23;20054;-80
2023/06/07 02:22:41;;;;;;;17.55;9.10;;;13.00;99.90;;;;;;4848530;29;39987;-81
2023/06/07 02:25:32;;;;;;;19.90;9.02;;;12.90;99.90;;;;;;4850759;29;39048;-80
2023/06/07 02:29:17;;;;;;;17.05;9.40;;;13.00;99.90;;;;;;4846701;29;39314;-80
2023/06/07 02:32:05;;;;;;;22.83;10.15;;;13.00;99.90;;;;;;4848309;29;39484;-80
2023/06/07 03:36:40;;;;;;;13.90;9.73;;;12.70;99.90;;;;;;5398535;23;20009;-80
2023/06/07 03:39:55;;;;;;;22.15;10.82;;;12.70;99.90;;;;;;5106376;24;37896;-81
2023/06/07 04:15:01;;;;;;;17.98;8.57;;;12.80;99.90;;;;;;5741547;23;20042;-80
2023/06/07 04:29:53;;;;;;;16.75;8.40;;;13.00;99.90;;;;;;5071416;23;20038;-79
2023/06/07 04:32:50;;;;;;;13.63;7.85;;;13.10;99.90;;;;;;4805978;29;38482;-80
2023/06/07 04:40:56;;;;;;;;;;;13.20;99.90;;;;;;5115834;24;20057;-81
2023/06/07 04:46:30;;;;;;;14.77;7.15;;;13.10;99.90;;;;;;4932259;23;20024;-80
2023/06/07 04:52:43;;;;;;;13.18;6.95;;;13.20;99.90;;;;;;4888448;24;20040;-77
2023/06/07 04:55:56;;;;;;;15.25;7.57;;;13.20;99.90;;;;;;4850174;29;37887;-80
2023/06/07 04:58:40;;;;;;;16.00;7.95;;;13.20;99.90;;;;;;4814016;29;40266;-79
2023/06/07 05:01:11;;;;;;;15.98;7.97;;;13.20;99.90;;;;;;4963112;23;39799;-75
2023/06/07 05:03:42;;;;;;;20.13;8.20;;;13.30;99.90;;;;;;5030761;23;38157;-80
2023/06/07 05:06:18;;;;;;;17.88;8.13;;;13.40;99.90;;;;;;4845854;29;38708;-83
2023/06/07 05:14:23;;;;;;;13.70;7.25;;;13.40;99.90;;;;;;5392215;23;20078;-79
2023/06/07 05:16:51;;;;;;;15.52;7.60;;;13.50;99.90;;;;;;4838504;29;36515;-80
2023/06/07 05:19:57;;;;;;;16.73;8.82;;;13.40;99.90;;;;;;4860775;29;39546;-81
2023/06/07 05:25:09;;;;;;;13.48;8.18;;;13.40;99.90;;;;;;5458225;24;20076;-82
2023/06/07 05:27:37;;;;;;;21.38;8.90;;;13.40;99.90;;;;;;4860697;29;36565;-79
2023/06/07 05:30:04;;;;;;;16.25;7.10;;;13.50;99.90;;;;;;4855090;29;39924;-81
2023/06/07 05:32:32;;;;;;;16.98;7.80;;;13.70;99.90;;;;;;4838119;29;48730;-79
2023/06/07 05:34:59;;;;;;;12.45;7.07;;;13.70;99.90;;;;;;4827284;29;36675;-81
2023/06/07 05:37:26;;;;;;;15.48;7.20;;;13.70;99.90;;;;;;4817366;29;37073;-77
2023/06/07 05:39:53;;;;;;;13.85;6.95;;;13.80;99.90;;;;;;4833860;29;39799;-80
2023/06/07 05:42:19;;;;;;;14.80;7.18;;;13.80;99.90;;;;;;4826686;29;38661;-77
2023/06/07 05:44:46;;;;;;;15.55;7.22;;;13.80;99.90;;;;;;4828849;29;37203;-80
2023/06/07 05:47:13;;;;;;;11.90;6.97;;;13.80;99.90;;;;;;4803327;29;36118;-79
2023/06/07 05:49:39;;;;;;;11.05;6.75;;;13.90;99.90;;;;;;4823824;29;38382;-77
2023/06/07 05:52:05;;;;;;;12.82;6.65;;;14.00;99.90;;;;;;4810866;29;36382;-78
2023/06/07 05:54:31;;;;;;;11.85;6.38;;;14.10;99.90;;;;;;4824306;29;39150;-80
2023/06/07 05:56:57;;;;;;;15.38;7.25;;;14.10;99.90;;;;;;4806981;29;37482;-80
2023/06/07 05:59:24;;;;;;;12.30;5.82;;;14.00;99.90;;;;;;4805055;29;38582;-80
2023/06/07 06:01:50;;;;;;;17.20;7.88;;;14.00;99.90;;;;;;4821623;29;37668;-78
2023/06/07 06:04:17;;;;;;;12.90;6.50;;;14.20;99.90;;;;;;4807548;29;37169;-82
2023/06/07 06:06:43;;;;;;;14.90;6.20;;;14.30;99.90;;;;;;4819685;29;37549;-80
2023/06/07 06:09:09;;;;;;;12.07;6.50;;;14.60;99.90;;;;;;4805482;29;37662;-80
2023/06/07 06:11:35;;;;;;;12.73;5.63;;;15.00;99.90;;;;;;4816307;29;38246;-80
2023/06/07 06:14:02;;;;;;;12.88;6.25;;;15.20;99.90;;;;;;4817379;29;38024;-81
2023/06/07 06:16:28;;;;;;;10.88;5.72;;;15.50;99.90;;;;;;4803608;29;35752;-86
2023/06/07 06:18:54;;;;;;;13.02;5.70;;;16.00;99.90;;;;;;4821491;29;38392;-85
2023/06/07 06:21:20;;;;;;;11.40;5.40;;;16.30;95.90;;;;;;4807034;29;38600;-82
2023/06/07 06:23:47;;;;;;;11.55;5.10;;;16.70;96.00;;;;;;4809544;29;37819;-79
2023/06/07 06:26:13;;;;;;;12.95;6.80;;;16.70;90.90;;;;;;4823016;29;37372;-85
2023/06/07 06:28:39;;;;;;;12.70;5.75;;;16.20;85.70;;;;;;4807493;29;39021;-85
2023/06/07 06:31:05;;;;;;;11.82;6.10;;;15.80;96.10;;;;;;4823254;29;37309;-84
2023/06/07 06:33:31;;;;;;;14.88;6.43;;;15.90;99.90;;;;;;4810962;29;36969;-84
2023/06/07 06:35:59;;;;;;;16.08;6.15;;;15.60;99.30;;;;;;4825009;29;36757;-84
2023/06/07 06:38:25;;;;;;;16.33;6.53;;;15.50;99.90;;;;;;4825163;29;39586;-84
2023/06/07 06:40:51;;;;;;;18.20;5.82;;;15.40;99.90;;;;;;4822257;29;38783;-84
2023/06/07 06:43:17;;;;;;;15.15;5.32;;;15.50;99.90;;;;;;4821952;29;37030;-83
2023/06/07 06:45:44;;;;;;;13.68;4.93;;;15.50;99.60;;;;;;4807801;29;36358;-80
2023/06/07 06:48:10;;;;;;;10.45;5.75;;;15.60;95.50;;;;;;4830350;29;40382;-80
2023/06/07 06:50:36;;;;;;;14.52;5.55;;;15.60;95.60;;;;;;4826484;29;37525;-85
2023/06/07 06:53:02;;;;;;;17.45;5.30;;;15.60;95.60;;;;;;4822814;29;37947;-83
2023/06/07 06:55:29;;;;;;;15.68;4.90;;;16.00;94.80;;;;;;4821893;29;36102;-86
2023/06/07 06:57:55;;;;;;;12.18;4.55;;;16.60;83.20;;;;;;4807542;29;37714;-83
2023/06/07 07:00:23;;;;;;;8.27;4.18;;;16.80;84.50;;;;;;4824630;29;38620;-80
2023/06/07 07:02:49;;;;;;;10.10;4.80;;;17.10;90.60;;;;;;4807515;29;37550;-79
2023/06/07 07:05:15;;;;;;;12.90;4.50;;;17.30;68.70;;;;;;4833148;29;37574;-79
2023/06/07 07:07:41;;;;;;;12.20;4.57;;;17.20;78.90;;;;;;4808765;29;37607;-81
2023/06/07 07:10:08;;;;;;;10.00;4.63;;;17.20;82.70;;;;;;4808738;29;38263;-77
2023/06/07 07:12:36;;;;;;;12.18;4.90;;;17.40;83.90;;;;;;4830973;29;36955;-82
2023/06/07 07:15:03;;;;;;;13.35;4.75;;;17.20;68.20;;;;;;4807987;29;36290;-81
2023/06/07 07:17:30;;;;;;;15.52;5.43;;;17.20;77.20;;;;;;4799011;29;37856;-79
2023/06/07 07:19:56;;;;;;;10.77;4.70;;;17.20;79.20;;;;;;4808059;29;37717;-81
2023/06/07 07:22:22;;;;;;;12.38;3.95;;;17.30;82.20;;;;;;4833076;29;36767;-80
2023/06/07 07:24:49;;;;;;;13.40;4.72;;;17.40;63.60;;;;;;4820306;29;38074;-80
2023/06/07 07:27:17;;;;;;;13.85;4.40;;;17.30;71.60;;;;;;4806264;29;39007;-81
2023/06/07 07:29:43;;;;;;;12.23;4.72;;;17.50;69.80;;;;;;4830473;29;37544;-81
2023/06/07 07:32:09;;;;;;;14.45;4.82;;;17.90;80.30;;;;;;4802525;29;37382;-81
2023/06/07 07:34:35;;;;;;;11.93;3.65;;;18.10;58.80;;;;;;4826785;29;36317;-78
2023/06/07 07:37:02;;;;;;;13.48;4.70;;;18.40;56.20;;;;;;4822644;29;37817;-80
2023/06/07 07:39:29;;;;;;;12.20;4.15;;;18.50;32.80;;;;;;4808793;29;47091;-79
2023/06/07 07:41:55;;;;;;;14.05;4.72;;;18.70;42.70;;;;;;4825794;29;38336;-80
2023/06/07 07:44:21;;;;;;;8.07;4.13;;;18.70;43.90;;;;;;4806835;29;36604;-81
2023/06/07 07:46:47;;;;;;;13.80;4.13;;;18.70;48.20;;;;;;4805724;29;37922;-79
2023/06/07 07:49:13;;;;;;;17.20;4.30;;;18.70;29.20;;;;;;4805393;29;38578;-79
2023/06/07 07:51:39;;;;;;;15.30;5.30;;;18.70;35.40;;;;;;4808305;29;37153;-78
2023/06/07 07:54:06;;;;;;;12.15;4.10;;;18.20;36.10;;;;;;4806347;29;37521;-80
2023/06/07 07:56:32;;;;;;;12.15;4.20;;;18.40;46.60;;;;;;4807491;29;40218;-78
2023/06/07 07:58:58;;;;;;;15.43;4.32;;;18.70;40.40;;;;;;4805308;29;36913;-78
2023/06/07 08:01:24;;;;;;;15.88;3.97;;;18.90;37.10;;;;;;4825899;29;35308;-77
2023/06/07 08:03:50;;;;;;;20.48;5.13;;;18.90;25.20;;;;;;4824547;29;37733;-80
2023/06/07 08:06:16;;;;;;;14.82;3.60;;;18.60;5.80;;;;;;4819984;29;40064;-79
2023/06/07 08:08:46;;;;;;;12.18;3.83;;;18.80;20.30;;;;;;4820751;29;38883;-79
2023/06/07 08:11:12;;;;;;;12.35;4.57;;;19.30;4.30;;;;;;4818862;29;38662;-80
2023/06/07 08:13:39;;;;;;;14.55;4.18;;;19.60;1.00;;;;;;4821847;29;35907;-81
2023/06/07 08:16:05;;;;;;;14.82;4.38;;;19.80;1.00;;;;;;4828409;29;37655;-80
2023/06/07 08:18:32;;;;;;;12.25;4.22;;;19.70;1.00;;;;;;4821386;29;38185;-80
2023/06/07 08:20:58;;;;;;;9.35;3.95;;;20.00;1.00;;;;;;4826453;29;36981;-79
2023/06/07 08:23:24;;;;;;;10.45;3.97;;;20.50;1.00;;;;;;4808092;29;37385;-79
2023/06/07 08:25:51;;;;;;;9.50;4.32;;;20.50;1.00;;;;;;4827435;29;20097;-82
2023/06/07 08:28:18;;;;;;;14.00;4.70;;;20.50;1.00;;;;;;4822632;29;38244;-80
2023/06/07 08:30:44;;;;;;;19.58;5.53;;;20.20;1.00;;;;;;4807948;29;37403;-80
2023/06/07 08:33:10;;;;;;;18.52;4.40;;;20.20;1.00;;;;;;4808851;29;36691;-81
2023/06/07 08:35:36;;;;;;;11.73;4.15;;;20.60;1.00;;;;;;4823376;29;37835;-80
2023/06/07 08:38:02;;;;;;;11.20;4.07;;;20.90;1.00;;;;;;4824750;29;38397;-84
2023/06/07 08:40:31;;;;;;;18.58;4.75;;;20.90;1.00;;;;;;4816364;29;36636;-82
2023/06/07 08:42:57;;;;;;;10.13;4.20;;;21.10;1.00;;;;;;4802245;29;37020;-83
2023/06/07 08:45:24;;;;;;;15.75;5.32;;;21.10;1.00;;;;;;4815929;29;37798;-83
2023/06/07 08:47:51;;;;;;;16.35;4.85;;;21.10;1.00;;;;;;4822139;29;37319;-84
2023/06/07 08:50:21;;;;;;;10.05;4.50;;;21.30;99.90;;;;;;4822327;29;38381;-82
2023/06/07 08:52:53;;;;;;;13.77;4.95;;;21.40;99.90;;;;;;4807739;29;36488;-83
2023/06/07 08:55:21;;;;;;;9.93;4.30;;;21.30;75.50;;;;;;4825756;29;39704;-82
2023/06/07 08:57:52;;;;;;;10.25;4.18;;;21.30;99.90;;;;;;4823640;29;37197;-82
2023/06/07 09:00:23;;;;;;;9.93;4.00;;;21.40;1.00;;;;;;4807298;29;38439;-81
2023/06/07 09:02:53;;;;;;;14.75;4.80;;;21.40;99.90;;;;;;4804846;29;47379;-82
2023/06/07 09:05:21;;;;;;;14.15;4.15;;;21.50;1.00;;;;;;4825790;29;39444;-81
2023/06/07 09:07:48;;;;;;;13.68;4.22;;;21.20;99.90;;;;;;4802652;29;38245;-81
2023/06/07 09:10:17;;;;;;;12.60;4.57;;;21.50;90.60;;;;;;4820340;29;37349;-81
2023/06/07 09:12:45;;;;;;;8.65;3.72;;;21.70;1.00;;;;;;4820188;29;38027;-81
2023/06/07 09:15:18;;;;;;;7.78;3.67;;;21.60;75.00;;;;;;4804349;29;38854;-82
2023/06/07 09:17:54;;;;;;;10.38;3.95;;;21.40;1.00;;;;;;4804491;29;37305;-82
2023/06/07 09:20:25;;;;;;;11.82;4.10;;;21.30;1.00;;;;;;4819528;29;38074;-83
2023/06/07 09:23:01;;;;;;;13.73;4.40;;;21.70;1.00;;;;;;4804693;29;35969;-83
2023/06/07 09:25:28;;;;;;;11.38;4.68;;;22.20;99.90;;;;;;4820655;29;47032;-83
2023/06/07 09:27:55;;;;;;;7.38;3.45;;;22.50;1.00;;;;;;4807234;29;38223;-82
2023/06/07 09:30:22;;;;;;;12.57;4.05;;;22.60;1.00;;;;;;4818202;29;37807;-82
2023/06/07 09:32:48;;;;;;;13.82;4.63;;;22.70;99.90;;;;;;4818464;29;37044;-82
2023/06/07 09:35:16;;;;;;;10.43;4.50;;;22.40;1.00;;;;;;4807061;29;37952;-81
2023/06/07 09:37:47;;;;;;;9.45;4.65;;;22.00;1.10;;;;;;4804402;29;37713;-82
2023/06/07 09:40:14;;;;;;;11.35;4.07;;;22.00;99.90;;;;;;4822839;29;36948;-81
2023/06/07 09:42:42;;;;;;;13.90;4.40;;;21.90;1.00;;;;;;4814030;29;36851;-81
2023/06/07 09:45:15;;;;;;;11.70;4.30;;;21.80;1.00;;;;;;4828365;29;38615;-81
2023/06/07 09:47:42;;;;;;;10.57;4.30;;;22.00;99.90;;;;;;4811263;29;37834;-79
2023/06/07 09:50:12;;;;;;;8.98;4.18;;;22.10;1.00;;;;;;4833064;29;37077;-81
2023/06/07 09:52:42;;;;;;;13.02;4.50;;;22.40;1.00;;;;;;4809914;29;37425;-80
2023/06/07 09:55:24;;;;;;;9.55;4.72;;;22.60;1.00;;;;;;4808310;29;38707;-81
2023/06/07 09:57:51;;;;;;;10.30;4.60;;;22.40;1.00;;;;;;4833607;29;38335;-83
2023/06/07 10:00:19;;;;;;;9.88;4.00;;;22.20;1.00;;;;;;4828340;29;37001;-81
2023/06/07 10:02:46;;;;;;;7.72;3.90;;;22.30;1.00;;;;;;4833953;29;47135;-82
2023/06/07 10:05:14;;;;;;;7.82;3.83;;;22.70;1.00;;;;;;4820754;29;37644;-81
2023/06/07 10:07:46;;;;;;;11.65;4.82;;;22.90;1.00;;;;;;4836982;29;39658;-82
2023/06/07 10:10:14;;;;;;;;;;;23.20;1.00;;;;;;4813650;29;37304;-81
2023/06/07 10:12:42;;;;;;;10.20;4.53;;;23.60;99.90;;;;;;4834208;29;38416;-83
2023/06/07 10:15:13;;;;;;;9.48;4.50;;;23.30;1.00;;;;;;4819299;29;38676;-82
2023/06/07 10:18:00;;;;;;;10.73;4.20;;;23.20;1.00;;;;;;4821869;29;38645;-81
2023/06/07 10:20:35;;;;;;;12.93;4.25;;;23.50;13.40;;;;;;4836638;29;37832;-82
2023/06/07 10:23:10;;;;;;;11.50;4.70;;;23.20;1.00;;;;;;4819107;29;37408;-81
2023/06/07 10:26:18;;;;;;;8.63;4.20;;;23.50;1.00;;;;;;4834877;29;38560;-82
2023/06/07 10:28:57;;;;;;;9.18;4.00;;;23.70;1.00;;;;;;4799904;29;47180;-81
2023/06/07 10:31:31;;;;;;;7.80;4.22;;;24.10;1.00;;;;;;4827716;29;39052;-83
2023/06/07 10:33:59;;;;;;;7.82;4.15;;;24.20;99.90;;;;;;4821473;29;37148;-80
2023/06/07 10:36:26;;;;;;;9.73;4.22;;;23.90;99.90;;;;;;4806561;29;38328;-82
2023/06/07 10:38:55;;;;;;;8.52;4.47;;;24.00;12.10;;;;;;4811025;29;39610;-83
2023/06/07 10:41:21;;;;;;;10.68;4.32;;;24.20;99.90;;;;;;4813414;29;38639;-85
2023/06/07 10:43:47;;;;;;;8.43;4.15;;;24.30;2.40;;;;;;4813715;29;37623;-80
2023/06/07 10:46:23;;;;;;;12.23;4.30;;;24.40;1.00;;;;;;4810188;29;38191;-81
2023/06/07 10:48:50;;;;;;;13.52;4.10;;;24.80;99.90;;;;;;4814714;29;37657;-82
2023/06/07 10:51:17;;;;;;;8.32;3.90;;;24.50;99.90;;;;;;4816181;29;36527;-80
2023/06/07 10:53:49;;;;;;;11.57;4.53;;;24.50;99.90;;;;;;4818868;29;36455;-81
2023/06/07 10:56:36;;;;;;;7.03;3.38;;;24.70;1.00;;;;;;4812140;29;38019;-82
2023/06/07 10:59:20;;;;;;;10.45;4.00;;;24.70;99.90;;;;;;4828351;29;38701;-79
2023/06/07 11:01:49;;;;;;;8.48;4.25;;;25.00;1.00;;;;;;4830314;29;37123;-79
2023/06/07 11:04:33;;;;;;;10.55;3.85;;;24.90;1.00;;;;;;4817261;29;35970;-81
2023/06/07 11:07:19;;;;;;;11.45;4.47;;;24.60;99.90;;;;;;4830455;29;40235;-81
2023/06/07 11:09:48;;;;;;;8.27;3.67;;;24.70;18.60;;;;;;4811214;29;47630;-81
2023/06/07 11:12:35;;;;;;;8.52;3.50;;;24.90;1.00;;;;;;4817464;29;36961;-80
2023/06/07 11:15:17;;;;;;;10.02;4.10;;;24.80;81.20;;;;;;4825353;29;37389;-82
2023/06/07 11:17:53;;;;;;;9.90;3.53;;;25.20;99.90;;;;;;4818822;29;47200;-80
2023/06/07 11:20:52;;;;;;;11.43;4.25;;;25.20;99.90;;;;;;4832068;29;38709;-82
2023/06/07 11:23:26;;;;;;;8.70;4.35;;;25.20;76.90;;;;;;4800414;29;37292;-83
2023/06/07 11:26:00;;;;;;;11.23;3.92;;;25.30;1.00;;;;;;4830453;29;38721;-82
2023/06/07 11:28:31;;;;;;;9.07;4.10;;;25.30;99.90;;;;;;4835864;29;39452;-82
2023/06/07 11:30:58;;;;;;;8.43;3.58;;;25.20;1.00;;;;;;4829288;29;39431;-81
2023/06/07 11:33:25;;;;;;;12.23;4.25;;;25.10;70.40;;;;;;4830453;29;37427;-82
2023/06/07 11:35:52;;;;;;;13.05;4.88;;;25.30;99.90;;;;;;4817447;29;36563;-82
2023/06/07 11:38:19;;;;;;;13.88;4.97;;;25.60;1.00;;;;;;4831089;29;39005;-81
2023/06/07 11:40:46;;;;;;;12.32;4.50;;;25.50;1.00;;;;;;4818120;29;37441;-84
2023/06/07 11:43:13;;;;;;;10.93;4.40;;;25.20;1.00;;;;;;4812449;29;36838;-80
2023/06/07 11:45:43;;;;;;;5.53;2.83;;;25.00;19.50;;;;;;4832768;29;38224;-82
2023/06/07 11:48:10;;;;;;;9.07;4.18;;;25.00;99.90;;;;;;4826709;29;39018;-82
2023/06/07 11:50:38;;;;;;;9.73;4.45;;;25.50;1.00;;;;;;4812208;29;37491;-82
2023/06/07 11:53:06;;;;;;;13.38;4.18;;;25.30;1.00;;;;;;4812350;29;37340;-78
2023/06/07 11:55:32;;;;;;;9.88;4.00;;;25.40;1.00;;;;;;4817335;29;36374;-80
2023/06/07 11:58:03;;;;;;;10.82;3.90;;;25.30;1.00;;;;;;4830477;29;39104;-79
2023/06/07 12:00:33;;;;;;;9.60;4.15;;;25.20;1.00;;;;;;4813547;29;47250;-81
2023/06/07 12:03:01;;;;;;;9.27;3.67;;;25.30;1.00;;;;;;4820160;29;37098;-81
2023/06/07 12:05:30;;;;;;;9.63;4.20;;;25.60;1.00;;;;;;4831118;29;47307;-80
2023/06/07 12:08:09;;;;;;;8.65;4.45;;;25.70;1.00;;;;;;4816245;29;38006;-81
2023/06/07 12:10:38;;;;;;;9.40;4.15;;;25.60;1.00;;;;;;4830089;29;47585;-80
2023/06/07 12:13:15;;;;;;;10.23;3.78;;;25.60;1.00;;;;;;4814753;29;38463;-80
2023/06/07 12:15:46;;;;;;;6.15;3.60;;;25.90;1.00;;;;;;4814377;29;37369;-81
2023/06/07 12:18:14;;;;;;;7.35;3.40;;;25.70;1.00;;;;;;4835668;29;38485;-81
2023/06/07 12:20:42;;;;;;;7.57;4.13;;;25.80;1.00;;;;;;4815941;29;38558;-82
2023/06/07 12:23:10;;;;;;;12.80;4.70;;;25.90;1.00;;;;;;4833857;29;38461;-79
2023/06/07 12:25:36;;;;;;;11.50;3.90;;;25.80;1.00;;;;;;4813602;29;35987;-80
2023/06/07 12:28:05;;;;;;;8.82;3.53;;;26.00;1.00;;;;;;4810019;29;39274;-80
2023/06/07 12:30:40;;;;;;;8.35;4.20;;;25.90;1.00;;;;;;4826640;29;37723;-82
2023/06/07 12:33:17;;;;;;;16.23;4.65;;;25.80;1.00;;;;;;4803815;29;37020;-81
2023/06/07 12:35:47;;;;;;;10.77;4.30;;;25.80;1.00;;;;;;4812543;29;39216;-81
2023/06/07 12:38:14;;;;;;;7.93;3.80;;;25.90;1.00;;;;;;4831899;29;39464;-81
2023/06/07 12:40:40;;;;;;;9.52;4.15;;;26.10;1.00;;;;;;4809981;29;38344;-82
2023/06/07 12:43:06;;;;;;;9.70;4.07;;;26.30;1.00;;;;;;4814978;29;37499;-81
2023/06/07 12:45:32;;;;;;;9.25;3.65;;;26.20;1.00;;;;;;4812473;29;36346;-83
2023/06/07 12:47:58;;;;;;;7.88;3.63;;;26.00;1.00;;;;;;4810668;29;39087;-83
2023/06/07 12:50:24;;;;;;;7.63;3.70;;;26.10;1.00;;;;;;4814138;29;37250;-84
2023/06/07 12:52:50;;;;;;;6.35;3.60;;;26.20;1.00;;;;;;4815434;29;37307;-82
2023/06/07 12:55:17;;;;;;;10.98;4.32;;;26.20;1.00;;;;;;4823714;29;37035;-84
2023/06/07 12:57:44;;;;;;;13.35;4.53;;;26.10;1.00;;;;;;4813378;29;37728;-83
2023/06/07 13:00:10;;;;;;;13.35;4.03;;;26.10;1.00;;;;;;4805354;29;37249;-83
2023/06/07 13:02:38;;;;;;;10.70;3.72;;;25.70;1.00;;;;;;4806771;29;37440;-85
2023/06/07 13:05:05;;;;;;;11.80;4.38;;;25.90;1.00;;;;;;4811917;29;37393;-83
2023/06/07 13:07:33;;;;;;;8.93;4.25;;;25.90;1.00;;;;;;4815353;29;38629;-82
2023/06/07 13:10:00;;;;;;;9.48;3.45;;;25.80;1.00;;;;;;4813645;29;37452;-85
2023/06/07 13:12:27;;;;;;;9.05;4.53;;;25.70;1.00;;;;;;4825338;29;38458;-84
2023/06/07 13:14:53;;;;;;;12.15;4.28;;;25.90;1.00;;;;;;4828526;29;36422;-82
2023/06/07 13:17:19;;;;;;;10.20;3.95;;;26.00;1.00;;;;;;4812954;29;38343;-81
2023/06/07 13:19:46;;;;;;;8.02;4.32;;;26.10;1.00;;;;;;4817125;29;38072;-82
2023/06/07 13:22:12;;;;;;;8.48;3.38;;;26.20;1.00;;;;;;4830399;29;36929;-83
2023/06/07 13:24:38;;;;;;;11.98;4.50;;;26.40;1.00;;;;;;4780384;29;1280930;-85
2023/06/07 13:27:05;;;;;;;9.20;4.47;;;25.90;1.00;;;;;;4828611;29;39008;-81
2023/06/07 13:29:31;;;;;;;8.27;4.07;;;25.60;1.00;;;;;;4837389;29;39353;-83
2023/06/07 13:31:57;;;;;;;11.13;4.40;;;25.50;1.00;;;;;;4821750;29;38697;-83
2023/06/07 13:34:24;;;;;;;12.65;4.53;;;25.60;1.00;;;;;;4814930;29;36368;-82
2023/06/07 13:36:50;;;;;;;8.80;4.05;;;25.70;1.00;;;;;;4819761;29;39648;-84
2023/06/07 13:39:17;;;;;;;7.03;3.38;;;25.70;1.00;;;;;;4832028;29;39054;-83
2023/06/07 13:41:43;;;;;;;8.85;3.35;;;25.90;1.00;;;;;;4837682;29;38821;-83
2023/06/07 13:44:10;;;;;;;9.57;4.07;;;25.90;1.00;;;;;;4830917;29;37378;-82
2023/06/07 13:46:36;;;;;;;9.23;4.15;;;25.90;1.00;;;;;;4844820;29;38913;-84
2023/06/07 13:49:02;;;;;;;10.35;4.10;;;25.90;1.00;;;;;;4825572;29;37589;-85
2023/06/07 13:51:29;;;;;;;10.15;4.15;;;25.70;1.00;;;;;;4832122;29;38787;-83
2023/06/07 13:53:55;;;;;;;8.68;4.28;;;25.50;1.00;;;;;;4811597;29;36079;-82
2023/06/07 13:56:21;;;;;;;7.57;3.65;;;25.70;1.00;;;;;;4821693;29;40811;-82
2023/06/07 13:58:48;;;;;;;7.30;3.10;;;25.50;1.00;;;;;;4806720;29;37567;-82
2023/06/07 14:01:14;;;;;;;7.03;3.13;;;25.60;1.00;;;;;;4812007;29;36775;-81
2023/06/07 14:03:40;;;;;;;8.30;4.05;;;25.80;1.00;;;;;;4790203;29;36087;-83
2023/06/07 14:06:07;;;;;;;7.70;3.67;;;26.00;1.00;;;;;;4803667;29;38230;-80
2023/06/07 14:08:33;;;;;;;8.27;3.83;;;26.00;1.00;;;;;;4811167;29;38365;-80
2023/06/07 14:11:00;;;;;;;9.30;4.00;;;26.00;1.00;;;;;;4814003;29;38409;-80
2023/06/07 14:13:26;;;;;;;7.68;3.65;;;25.90;1.00;;;;;;4821968;29;37877;-82
2023/06/07 14:15:52;;;;;;;9.05;4.30;;;25.80;1.00;;;;;;4831352;29;38090;-83
2023/06/07 14:18:18;;;;;;;9.40;4.30;;;26.00;1.00;;;;;;4812497;29;38703;-81
2023/06/07 14:20:44;;;;;;;8.85;4.25;;;25.90;1.00;;;;;;4828916;29;37081;-81
2023/06/07 14:23:10;;;;;;;8.45;3.55;;;25.80;1.00;;;;;;4811716;29;37247;-83
2023/06/07 14:25:36;;;;;;;9.77;4.40;;;25.90;1.00;;;;;;4813659;29;37919;-82
2023/06/07 14:28:02;;;;;;;4.85;3.38;;;25.90;1.00;;;;;;4828195;29;37096;-79
2023/06/07 14:30:28;;;;;;;11.57;4.28;;;25.90;1.00;;;;;;4810151;29;37130;-81
2023/06/07 14:32:55;;;;;;;8.13;3.95;;;25.80;1.00;;;;;;4829958;29;36945;-82
2023/06/07 14:35:21;;;;;;;7.60;3.45;;;25.70;1.00;;;;;;4812932;29;39711;-82
2023/06/07 14:37:47;;;;;;;9.23;4.28;;;25.80;1.00;;;;;;4811692;29;37779;-81
2023/06/07 14:40:13;;;;;;;5.30;3.53;;;25.60;1.00;;;;;;4815712;29;37062;-81
2023/06/07 14:42:39;;;;;;;11.00;3.92;;;25.60;1.00;;;;;;4809650;29;36400;-82
2023/06/07 14:45:06;;;;;;;7.97;3.90;;;25.60;1.00;;;;;;4826234;29;38192;-79
2023/06/07 14:47:32;;;;;;;12.00;4.13;;;25.60;1.00;;;;;;4813854;29;37126;-80
2023/06/07 14:49:58;;;;;;;7.70;4.50;;;25.50;1.00;;;;;;4829925;29;39115;-80
2023/06/07 14:52:24;;;;;;;8.32;3.70;;;25.10;1.00;;;;;;4815386;29;36140;-79
2023/06/07 14:54:50;;;;;;;8.93;4.18;;;25.10;1.00;;;;;;4813776;29;37671;-80
2023/06/07 14:57:17;;;;;;;10.60;4.35;;;25.30;1.00;;;;;;4826877;29;38675;-78
2023/06/07 14:59:43;;;;;;;6.78;3.63;;;25.30;1.00;;;;;;4810895;29;38623;-79
2023/06/07 15:02:12;;;;;;;9.73;4.07;;;25.50;1.00;;;;;;4809299;29;37208;-78
2023/06/07 15:04:38;;;;;;;7.80;3.80;;;25.50;1.00;;;;;;4823170;29;39336;-82
2023/06/07 15:07:05;;;;;;;6.72;3.90;;;25.50;1.00;;;;;;4829916;29;39318;-83
2023/06/07 15:09:32;;;;;;;6.70;3.38;;;25.60;1.00;;;;;;4825118;29;37562;-81
2023/06/07 15:11:58;;;;;;;12.98;4.30;;;25.70;1.00;;;;;;4811449;29;37976;-84
2023/06/07 15:14:25;;;;;;;8.25;3.83;;;25.60;1.00;;;;;;4822765;29;38508;-81
2023/06/07 15:16:52;;;;;;;6.78;3.80;;;25.50;1.00;;;;;;4813231;29;37336;-81
2023/06/07 15:19:18;;;;;;;9.13;3.65;;;25.50;1.00;;;;;;4828997;29;36922;-82
2023/06/07 15:21:47;;;;;;;6.70;3.25;;;25.30;1.00;;;;;;4823962;29;35857;-82
2023/06/07 15:24:16;;;;;;;12.65;4.18;;;25.30;1.00;;;;;;4814761;29;37722;-82
2023/06/07 15:26:42;;;;;;;7.22;3.65;;;25.40;1.00;;;;;;4839402;29;38467;-81
2023/06/07 15:29:08;;;;;;;7.32;3.22;;;25.20;1.00;;;;;;4808033;29;36861;-79
2023/06/07 15:31:34;;;;;;;8.35;3.75;;;25.20;1.00;;;;;;4830062;29;38186;-79
2023/06/07 15:34:02;;;;;;;9.02;3.80;;;25.30;1.00;;;;;;4809633;29;37881;-82
2023/06/07 15:36:28;;;;;;;9.35;3.88;;;25.20;1.00;;;;;;4825594;29;48486;-80
2023/06/07 15:38:57;;;;;;;8.68;3.88;;;25.20;1.00;;;;;;4825881;29;38282;-82
2023/06/07 15:41:26;;;;;;;5.53;2.78;;;25.20;1.00;;;;;;4826761;29;37811;-81
2023/06/07 15:43:52;;;;;;;12.30;3.92;;;25.30;1.00;;;;;;4813057;29;38952;-82
2023/06/07 15:46:18;;;;;;;8.35;4.18;;;25.40;1.00;;;;;;4824626;29;39471;-81
2023/06/07 15:48:50;;;;;;;7.22;3.80;;;25.40;1.00;;;;;;4821909;29;37690;-84
2023/06/07 15:51:18;;;;;;;12.85;4.60;;;25.30;1.00;;;;;;4810342;29;36353;-85
2023/06/07 15:53:45;;;;;;;9.38;3.85;;;25.20;1.00;;;;;;4828625;29;38590;-85
2023/06/07 15:56:13;;;;;;;9.13;3.60;;;25.30;1.00;;;;;;4815089;29;38638;-85
2023/06/07 15:58:39;;;;;;;8.95;4.00;;;25.30;1.00;;;;;;4815945;29;37347;-86
2023/06/07 16:01:06;;;;;;;9.57;3.33;;;25.20;1.00;;;;;;4831396;29;37442;-86
2023/06/07 16:03:32;;;;;;;8.02;3.65;;;25.20;1.00;;;;;;4819343;29;38998;-87
2023/06/07 16:05:58;;;;;;;10.57;3.88;;;25.20;1.00;;;;;;4818467;29;37445;-85
2023/06/07 16:08:24;;;;;;;6.53;3.50;;;25.40;1.00;;;;;;4831845;29;38682;-86
2023/06/07 16:10:51;;;;;;;9.98;4.03;;;25.50;1.00;;;;;;4833462;29;37159;-85